sensor_id;sensor_type;location;lat;lon;timestamp;temperature;humidity
11474;DHT22;5793;52.238;13.438;2023-02-19T00:01:47;5.90;99.90
11474;DHT22;5793;52.238;13.438;2023-02-19T00:04:17;5.90;99.90
11474;DHT22;5793;52.238;13.438;2023-02-19T00:06:47;5.90;99.90
11474;DHT22;5793;52.238;13.438;2023-02-19T00:09:17;5.90;99.90
11474;DHT22;5793;52.238;13.438;2023-02-19T00:11:45;5.90;99.90
11474;DHT22;5793;52.238;13.438;2023-02-19T00:14:16;5.90;99.90
11474;DHT22;5793;52.238;13.438;2023-02-19T00:16:44;5.80;99.90
11474;DHT22;5793;52.238;13.438;2023-02-19T00:19:14;5.80;99.90
11474;DHT22;5793;52.238;13.438;2023-02-19T00:21:42;5.90;99.90
11474;DHT22;5793;52.238;13.438;2023-02-19T00:24:12;5.90;99.90
11474;DHT22;5793;52.238;13.438;2023-02-19T00:26:42;5.80;99.90
11474;DHT22;5793;52.238;13.438;2023-02-19T00:29:12;5.80;99.90
11474;DHT22;5793;52.238;13.438;2023-02-19T00:31:41;5.80;99.90
11474;DHT22;5793;52.238;13.438;2023-02-19T00:34:10;5.80;99.90
11474;DHT22;5793;52.238;13.438;2023-02-19T00:36:39;5.80;99.90
11474;DHT22;5793;52.238;13.438;2023-02-19T00:39:11;5.70;99.90
11474;DHT22;5793;52.238;13.438;2023-02-19T00:41:40;5.70;99.90
11474;DHT22;5793;52.238;13.438;2023-02-19T00:44:09;5.80;99.90
11474;DHT22;5793;52.238;13.438;2023-02-19T00:46:39;5.80;99.90
11474;DHT22;5793;52.238;13.438;2023-02-19T00:49:09;5.70;99.90
11474;DHT22;5793;52.238;13.438;2023-02-19T00:51:38;5.70;99.90
11474;DHT22;5793;52.238;13.438;2023-02-19T00:54:06;5.70;99.90
11474;DHT22;5793;52.238;13.438;2023-02-19T00:56:35;5.70;99.90
11474;DHT22;5793;52.238;13.438;2023-02-19T00:59:03;5.70;99.90
11474;DHT22;5793;52.238;13.438;2023-02-19T01:01:30;5.60;99.90
11474;DHT22;5793;52.238;13.438;2023-02-19T01:03:58;5.60;99.90
11474;DHT22;5793;52.238;13.438;2023-02-19T01:06:26;5.60;99.90
11474;DHT22;5793;52.238;13.438;2023-02-19T01:08:58;5.60;99.90
11474;DHT22;5793;52.238;13.438;2023-02-19T01:11:26;5.60;99.90
11474;DHT22;5793;52.238;13.438;2023-02-19T01:13:57;5.60;99.90
11474;DHT22;5793;52.238;13.438;2023-02-19T01:16:25;5.60;99.90
11474;DHT22;5793;52.238;13.438;2023-02-19T01:18:54;5.60;99.90
11474;DHT22;5793;52.238;13.438;2023-02-19T01:21:25;5.60;99.90
11474;DHT22;5793;52.238;13.438;2023-02-19T01:23:54;5.50;99.90
11474;DHT22;5793;52.238;13.438;2023-02-19T01:26:24;5.60;99.90
11474;DHT22;5793;52.238;13.438;2023-02-19T01:28:52;5.50;99.90
11474;DHT22;5793;52.238;13.438;2023-02-19T01:31:22;5.50;99.90
11474;DHT22;5793;52.238;13.438;2023-02-19T01:33:52;5.50;99.90
11474;DHT22;5793;52.238;13.438;2023-02-19T01:36:21;5.50;99.90
11474;DHT22;5793;52.238;13.438;2023-02-19T01:38:49;5.50;99.90
11474;DHT22;5793;52.238;13.438;2023-02-19T01:41:19;5.50;99.90
11474;DHT22;5793;52.238;13.438;2023-02-19T01:44:00;5.50;99.90
11474;DHT22;5793;52.238;13.438;2023-02-19T01:46:30;5.50;99.90
11474;DHT22;5793;52.238;13.438;2023-02-19T01:49:02;5.50;99.90
11474;DHT22;5793;52.238;13.438;2023-02-19T01:51:32;5.50;99.90
11474;DHT22;5793;52.238;13.438;2023-02-19T01:54:04;5.50;99.90
11474;DHT22;5793;52.238;13.438;2023-02-19T01:56:35;5.50;99.90
11474;DHT22;5793;52.238;13.438;2023-02-19T01:59:05;5.50;99.90
11474;DHT22;5793;52.238;13.438;2023-02-19T02:01:35;5.50;99.90
11474;DHT22;5793;52.238;13.438;2023-02-19T02:04:04;5.50;99.90
11474;DHT22;5793;52.238;13.438;2023-02-19T02:06:35;5.50;99.90
11474;DHT22;5793;52.238;13.438;2023-02-19T02:09:06;5.50;99.90
11474;DHT22;5793;52.238;13.438;2023-02-19T02:11:52;5.60;99.90
11474;DHT22;5793;52.238;13.438;2023-02-19T02:14:23;5.50;99.90
11474;DHT22;5793;52.238;13.438;2023-02-19T02:17:00;5.50;99.90
11474;DHT22;5793;52.238;13.438;2023-02-19T02:19:55;5.50;99.90
11474;DHT22;5793;52.238;13.438;2023-02-19T02:22:29;5.50;99.90
11474;DHT22;5793;52.238;13.438;2023-02-19T02:28:19;5.60;99.90
11474;DHT22;5793;52.238;13.438;2023-02-19T02:30:52;5.50;99.90
11474;DHT22;5793;52.238;13.438;2023-02-19T02:33:27;5.60;99.90
11474;DHT22;5793;52.238;13.438;2023-02-19T02:36:02;5.60;99.90
11474;DHT22;5793;52.238;13.438;2023-02-19T02:38:35;5.50;99.90
11474;DHT22;5793;52.238;13.438;2023-02-19T02:41:11;5.50;99.90
11474;DHT22;5793;52.238;13.438;2023-02-19T02:43:39;5.40;99.90
11474;DHT22;5793;52.238;13.438;2023-02-19T02:46:10;5.50;99.90
11474;DHT22;5793;52.238;13.438;2023-02-19T02:48:40;5.50;99.90
11474;DHT22;5793;52.238;13.438;2023-02-19T02:51:15;5.50;99.90
11474;DHT22;5793;52.238;13.438;2023-02-19T02:53:47;5.50;99.90
11474;DHT22;5793;52.238;13.438;2023-02-19T02:56:43;5.60;99.90
11474;DHT22;5793;52.238;13.438;2023-02-19T02:59:13;5.70;99.90
11474;DHT22;5793;52.238;13.438;2023-02-19T03:01:46;5.70;99.90
11474;DHT22;5793;52.238;13.438;2023-02-19T03:04:39;5.60;99.90
11474;DHT22;5793;52.238;13.438;2023-02-19T03:07:32;5.60;99.90
11474;DHT22;5793;52.238;13.438;2023-02-19T03:10:02;5.60;99.90
11474;DHT22;5793;52.238;13.438;2023-02-19T03:12:32;5.60;99.90
11474;DHT22;5793;52.238;13.438;2023-02-19T03:15:18;5.50;99.90
11474;DHT22;5793;52.238;13.438;2023-02-19T03:18:08;5.50;99.90
11474;DHT22;5793;52.238;13.438;2023-02-19T03:20:57;5.40;99.90
11474;DHT22;5793;52.238;13.438;2023-02-19T03:23:27;5.40;99.90
11474;DHT22;5793;52.238;13.438;2023-02-19T03:26:12;5.30;99.90
11474;DHT22;5793;52.238;13.438;2023-02-19T03:28:42;5.40;99.90
11474;DHT22;5793;52.238;13.438;2023-02-19T03:31:29;5.30;99.90
11474;DHT22;5793;52.238;13.438;2023-02-19T03:34:03;5.30;99.90
11474;DHT22;5793;52.238;13.438;2023-02-19T03:36:35;5.20;99.90
11474;DHT22;5793;52.238;13.438;2023-02-19T03:39:06;5.20;99.90
11474;DHT22;5793;52.238;13.438;2023-02-19T03:41:41;5.10;99.90
11474;DHT22;5793;52.238;13.438;2023-02-19T03:44:15;5.20;99.90
11474;DHT22;5793;52.238;13.438;2023-02-19T03:46:47;5.10;99.90
11474;DHT22;5793;52.238;13.438;2023-02-19T03:49:23;5.00;99.90
11474;DHT22;5793;52.238;13.438;2023-02-19T03:51:59;5.00;99.90
11474;DHT22;5793;52.238;13.438;2023-02-19T03:54:34;5.00;99.90
11474;DHT22;5793;52.238;13.438;2023-02-19T03:57:08;4.90;99.90
11474;DHT22;5793;52.238;13.438;2023-02-19T03:59:42;4.90;99.90
11474;DHT22;5793;52.238;13.438;2023-02-19T04:02:14;4.80;99.90
11474;DHT22;5793;52.238;13.438;2023-02-19T04:04:48;4.70;99.90
11474;DHT22;5793;52.238;13.438;2023-02-19T04:07:17;4.60;99.90
11474;DHT22;5793;52.238;13.438;2023-02-19T04:09:47;4.50;99.90
11474;DHT22;5793;52.238;13.438;2023-02-19T04:12:17;4.40;99.90
11474;DHT22;5793;52.238;13.438;2023-02-19T04:14:49;4.40;99.90
11474;DHT22;5793;52.238;13.438;2023-02-19T04:17:21;4.40;99.90
11474;DHT22;5793;52.238;13.438;2023-02-19T04:19:52;4.40;99.90
11474;DHT22;5793;52.238;13.438;2023-02-19T04:22:21;4.30;99.90
11474;DHT22;5793;52.238;13.438;2023-02-19T04:24:51;4.20;99.90
11474;DHT22;5793;52.238;13.438;2023-02-19T04:27:19;4.00;99.90
11474;DHT22;5793;52.238;13.438;2023-02-19T04:29:47;3.90;99.90
11474;DHT22;5793;52.238;13.438;2023-02-19T04:32:15;3.90;99.90
11474;DHT22;5793;52.238;13.438;2023-02-19T04:34:43;3.80;99.90
11474;DHT22;5793;52.238;13.438;2023-02-19T04:37:12;3.70;99.90
11474;DHT22;5793;52.238;13.438;2023-02-19T04:39:40;3.60;99.90
11474;DHT22;5793;52.238;13.438;2023-02-19T04:42:09;3.50;99.90
11474;DHT22;5793;52.238;13.438;2023-02-19T04:44:37;3.40;99.90
11474;DHT22;5793;52.238;13.438;2023-02-19T04:47:04;3.30;99.90
11474;DHT22;5793;52.238;13.438;2023-02-19T04:49:32;3.30;99.90
11474;DHT22;5793;52.238;13.438;2023-02-19T04:52:00;3.20;99.90
11474;DHT22;5793;52.238;13.438;2023-02-19T04:54:29;3.20;99.90
11474;DHT22;5793;52.238;13.438;2023-02-19T04:56:57;3.10;99.90
11474;DHT22;5793;52.238;13.438;2023-02-19T04:59:25;3.10;99.90
11474;DHT22;5793;52.238;13.438;2023-02-19T05:01:53;3.10;99.90
11474;DHT22;5793;52.238;13.438;2023-02-19T05:04:20;3.10;99.90
11474;DHT22;5793;52.238;13.438;2023-02-19T05:06:49;3.00;99.90
11474;DHT22;5793;52.238;13.438;2023-02-19T05:09:17;3.00;99.90
11474;DHT22;5793;52.238;13.438;2023-02-19T05:11:46;3.00;99.90
11474;DHT22;5793;52.238;13.438;2023-02-19T05:14:14;2.90;99.90
11474;DHT22;5793;52.238;13.438;2023-02-19T05:16:42;2.80;99.90
11474;DHT22;5793;52.238;13.438;2023-02-19T05:19:10;2.80;99.90
11474;DHT22;5793;52.238;13.438;2023-02-19T05:21:39;2.90;99.90
11474;DHT22;5793;52.238;13.438;2023-02-19T05:24:07;2.90;99.90
11474;DHT22;5793;52.238;13.438;2023-02-19T05:26:35;2.90;99.90
11474;DHT22;5793;52.238;13.438;2023-02-19T05:29:04;2.90;99.90
11474;DHT22;5793;52.238;13.438;2023-02-19T05:31:32;2.90;99.90
11474;DHT22;5793;52.238;13.438;2023-02-19T05:34:00;2.90;99.90
11474;DHT22;5793;52.238;13.438;2023-02-19T05:36:31;2.90;99.90
11474;DHT22;5793;52.238;13.438;2023-02-19T05:38:59;2.80;99.90
11474;DHT22;5793;52.238;13.438;2023-02-19T05:41:28;2.80;99.90
11474;DHT22;5793;52.238;13.438;2023-02-19T05:43:57;2.80;99.90
11474;DHT22;5793;52.238;13.438;2023-02-19T05:46:27;2.70;99.90
11474;DHT22;5793;52.238;13.438;2023-02-19T05:48:56;2.70;99.90
11474;DHT22;5793;52.238;13.438;2023-02-19T05:51:25;2.70;99.90
11474;DHT22;5793;52.238;13.438;2023-02-19T05:53:54;2.70;99.90
11474;DHT22;5793;52.238;13.438;2023-02-19T05:56:33;2.70;99.90
11474;DHT22;5793;52.238;13.438;2023-02-19T05:59:04;2.70;99.90
11474;DHT22;5793;52.238;13.438;2023-02-19T06:01:35;2.70;99.90
11474;DHT22;5793;52.238;13.438;2023-02-19T06:04:03;2.80;99.90
11474;DHT22;5793;52.238;13.438;2023-02-19T06:06:31;2.90;99.90
11474;DHT22;5793;52.238;13.438;2023-02-19T06:08:58;2.90;99.90
11474;DHT22;5793;52.238;13.438;2023-02-19T06:11:28;2.90;99.90
11474;DHT22;5793;52.238;13.438;2023-02-19T06:13:56;2.90;99.90
11474;DHT22;5793;52.238;13.438;2023-02-19T06:16:24;2.90;99.90
11474;DHT22;5793;52.238;13.438;2023-02-19T06:18:53;3.00;99.90
11474;DHT22;5793;52.238;13.438;2023-02-19T06:21:21;3.00;99.90
11474;DHT22;5793;52.238;13.438;2023-02-19T06:23:48;3.00;99.90
11474;DHT22;5793;52.238;13.438;2023-02-19T06:26:18;3.00;99.90
11474;DHT22;5793;52.238;13.438;2023-02-19T06:28:47;3.00;99.90
11474;DHT22;5793;52.238;13.438;2023-02-19T06:31:17;3.00;99.90
11474;DHT22;5793;52.238;13.438;2023-02-19T06:33:45;3.00;99.90
11474;DHT22;5793;52.238;13.438;2023-02-19T06:36:16;3.10;99.90
11474;DHT22;5793;52.238;13.438;2023-02-19T06:38:44;3.10;99.90
11474;DHT22;5793;52.238;13.438;2023-02-19T06:41:12;3.10;99.90
11474;DHT22;5793;52.238;13.438;2023-02-19T06:43:41;3.20;99.90
11474;DHT22;5793;52.238;13.438;2023-02-19T06:46:10;3.30;99.90
11474;DHT22;5793;52.238;13.438;2023-02-19T06:48:39;3.40;99.90
11474;DHT22;5793;52.238;13.438;2023-02-19T06:51:10;3.40;99.90
11474;DHT22;5793;52.238;13.438;2023-02-19T06:53:39;3.40;99.90
11474;DHT22;5793;52.238;13.438;2023-02-19T06:56:21;3.40;99.90
11474;DHT22;5793;52.238;13.438;2023-02-19T06:58:50;3.50;99.90
11474;DHT22;5793;52.238;13.438;2023-02-19T07:01:18;3.50;99.90
11474;DHT22;5793;52.238;13.438;2023-02-19T07:03:46;3.50;99.90
11474;DHT22;5793;52.238;13.438;2023-02-19T07:06:13;3.50;99.90
11474;DHT22;5793;52.238;13.438;2023-02-19T07:08:43;3.40;99.90
11474;DHT22;5793;52.238;13.438;2023-02-19T07:11:10;3.50;99.90
11474;DHT22;5793;52.238;13.438;2023-02-19T07:13:38;3.50;99.90
11474;DHT22;5793;52.238;13.438;2023-02-19T07:16:07;3.70;99.90
11474;DHT22;5793;52.238;13.438;2023-02-19T07:18:37;3.70;99.90
11474;DHT22;5793;52.238;13.438;2023-02-19T07:21:07;3.70;99.90
11474;DHT22;5793;52.238;13.438;2023-02-19T07:23:36;3.70;99.90
11474;DHT22;5793;52.238;13.438;2023-02-19T07:26:07;3.70;99.90
11474;DHT22;5793;52.238;13.438;2023-02-19T07:28:35;3.60;99.90
11474;DHT22;5793;52.238;13.438;2023-02-19T07:31:03;3.80;99.90
11474;DHT22;5793;52.238;13.438;2023-02-19T07:33:31;3.90;99.90
11474;DHT22;5793;52.238;13.438;2023-02-19T07:35:59;3.90;99.90
11474;DHT22;5793;52.238;13.438;2023-02-19T07:38:27;3.90;99.90
11474;DHT22;5793;52.238;13.438;2023-02-19T07:40:56;3.90;99.90
11474;DHT22;5793;52.238;13.438;2023-02-19T07:43:28;3.90;99.90
11474;DHT22;5793;52.238;13.438;2023-02-19T07:45:56;4.00;99.90
11474;DHT22;5793;52.238;13.438;2023-02-19T07:48:24;4.10;99.90
11474;DHT22;5793;52.238;13.438;2023-02-19T07:50:52;4.20;99.90
11474;DHT22;5793;52.238;13.438;2023-02-19T07:53:21;4.20;99.90
11474;DHT22;5793;52.238;13.438;2023-02-19T07:55:49;4.30;99.90
11474;DHT22;5793;52.238;13.438;2023-02-19T07:58:17;4.20;99.90
11474;DHT22;5793;52.238;13.438;2023-02-19T08:00:46;4.30;99.90
11474;DHT22;5793;52.238;13.438;2023-02-19T08:03:14;4.30;99.90
11474;DHT22;5793;52.238;13.438;2023-02-19T08:05:42;4.20;99.90
11474;DHT22;5793;52.238;13.438;2023-02-19T08:08:12;4.20;99.90
11474;DHT22;5793;52.238;13.438;2023-02-19T08:10:40;4.30;99.90
11474;DHT22;5793;52.238;13.438;2023-02-19T08:13:26;4.30;99.90
11474;DHT22;5793;52.238;13.438;2023-02-19T08:16:09;4.30;99.90
11474;DHT22;5793;52.238;13.438;2023-02-19T08:18:49;4.30;99.90
11474;DHT22;5793;52.238;13.438;2023-02-19T08:21:17;4.30;99.90
11474;DHT22;5793;52.238;13.438;2023-02-19T08:23:46;4.40;99.90
11474;DHT22;5793;52.238;13.438;2023-02-19T08:26:16;4.50;99.90
11474;DHT22;5793;52.238;13.438;2023-02-19T08:28:44;4.60;99.90
11474;DHT22;5793;52.238;13.438;2023-02-19T08:31:13;4.60;99.90
11474;DHT22;5793;52.238;13.438;2023-02-19T08:33:41;4.60;99.90
11474;DHT22;5793;52.238;13.438;2023-02-19T08:36:09;4.60;99.90
11474;DHT22;5793;52.238;13.438;2023-02-19T08:38:37;4.60;99.90
11474;DHT22;5793;52.238;13.438;2023-02-19T08:41:05;4.60;99.90
11474;DHT22;5793;52.238;13.438;2023-02-19T08:43:38;4.80;99.90
11474;DHT22;5793;52.238;13.438;2023-02-19T08:46:06;5.00;99.90
11474;DHT22;5793;52.238;13.438;2023-02-19T08:48:37;5.10;99.90
11474;DHT22;5793;52.238;13.438;2023-02-19T08:51:08;5.20;99.90
11474;DHT22;5793;52.238;13.438;2023-02-19T08:53:38;5.20;99.90
11474;DHT22;5793;52.238;13.438;2023-02-19T08:56:07;5.30;99.90
11474;DHT22;5793;52.238;13.438;2023-02-19T08:58:35;5.40;99.90
11474;DHT22;5793;52.238;13.438;2023-02-19T09:01:07;5.40;99.90
11474;DHT22;5793;52.238;13.438;2023-02-19T09:03:37;5.40;99.90
11474;DHT22;5793;52.238;13.438;2023-02-19T09:06:05;5.40;99.90
11474;DHT22;5793;52.238;13.438;2023-02-19T09:08:36;5.50;99.90
11474;DHT22;5793;52.238;13.438;2023-02-19T09:11:04;6.30;99.90
11474;DHT22;5793;52.238;13.438;2023-02-19T09:13:32;6.50;99.90
11474;DHT22;5793;52.238;13.438;2023-02-19T09:16:01;7.40;99.90
11474;DHT22;5793;52.238;13.438;2023-02-19T09:18:29;9.40;99.90
11474;DHT22;5793;52.238;13.438;2023-02-19T09:21:00;10.50;99.90
11474;DHT22;5793;52.238;13.438;2023-02-19T09:23:31;9.90;99.90
11474;DHT22;5793;52.238;13.438;2023-02-19T09:25:59;10.60;99.90
11474;DHT22;5793;52.238;13.438;2023-02-19T09:28:28;10.00;99.90
11474;DHT22;5793;52.238;13.438;2023-02-19T09:30:56;10.70;99.90
11474;DHT22;5793;52.238;13.438;2023-02-19T09:33:24;11.70;99.90
11474;DHT22;5793;52.238;13.438;2023-02-19T09:35:52;13.00;99.90
11474;DHT22;5793;52.238;13.438;2023-02-19T09:38:21;14.40;99.90
11474;DHT22;5793;52.238;13.438;2023-02-19T09:40:49;14.00;99.90
11474;DHT22;5793;52.238;13.438;2023-02-19T09:43:18;13.60;97.80
11474;DHT22;5793;52.238;13.438;2023-02-19T09:45:47;11.20;99.90
11474;DHT22;5793;52.238;13.438;2023-02-19T09:48:17;9.30;99.90
11474;DHT22;5793;52.238;13.438;2023-02-19T09:50:47;8.30;99.90
11474;DHT22;5793;52.238;13.438;2023-02-19T09:53:21;8.80;99.90
11474;DHT22;5793;52.238;13.438;2023-02-19T09:55:51;8.30;99.90
11474;DHT22;5793;52.238;13.438;2023-02-19T09:58:26;8.60;99.90
11474;DHT22;5793;52.238;13.438;2023-02-19T10:00:57;9.60;99.90
11474;DHT22;5793;52.238;13.438;2023-02-19T10:03:28;11.20;99.90
11474;DHT22;5793;52.238;13.438;2023-02-19T10:06:01;12.10;99.90
11474;DHT22;5793;52.238;13.438;2023-02-19T10:08:34;11.10;99.90
11474;DHT22;5793;52.238;13.438;2023-02-19T10:11:04;10.10;99.90
11474;DHT22;5793;52.238;13.438;2023-02-19T10:13:35;8.80;99.90
11474;DHT22;5793;52.238;13.438;2023-02-19T10:16:05;9.20;99.90
11474;DHT22;5793;52.238;13.438;2023-02-19T10:18:38;9.00;99.90
11474;DHT22;5793;52.238;13.438;2023-02-19T10:21:11;8.50;99.90
11474;DHT22;5793;52.238;13.438;2023-02-19T10:23:42;7.70;99.90
11474;DHT22;5793;52.238;13.438;2023-02-19T10:26:10;7.70;99.90
11474;DHT22;5793;52.238;13.438;2023-02-19T10:28:38;9.00;99.90
11474;DHT22;5793;52.238;13.438;2023-02-19T10:31:14;10.60;99.90
11474;DHT22;5793;52.238;13.438;2023-02-19T10:33:50;9.80;99.90
11474;DHT22;5793;52.238;13.438;2023-02-19T10:36:26;9.70;99.90
11474;DHT22;5793;52.238;13.438;2023-02-19T10:39:00;10.20;99.90
11474;DHT22;5793;52.238;13.438;2023-02-19T10:41:29;9.40;99.90
11474;DHT22;5793;52.238;13.438;2023-02-19T10:44:13;9.90;99.90
11474;DHT22;5793;52.238;13.438;2023-02-19T10:46:43;9.80;99.90
11474;DHT22;5793;52.238;13.438;2023-02-19T10:49:20;9.80;99.90
11474;DHT22;5793;52.238;13.438;2023-02-19T10:51:51;9.10;99.90
11474;DHT22;5793;52.238;13.438;2023-02-19T10:54:25;9.10;99.90
11474;DHT22;5793;52.238;13.438;2023-02-19T10:57:15;9.00;99.90
11474;DHT22;5793;52.238;13.438;2023-02-19T10:59:52;11.60;99.90
11474;DHT22;5793;52.238;13.438;2023-02-19T11:02:23;12.90;98.70
11474;DHT22;5793;52.238;13.438;2023-02-19T11:05:10;12.60;97.40
11474;DHT22;5793;52.238;13.438;2023-02-19T11:07:44;13.20;92.70
11474;DHT22;5793;52.238;13.438;2023-02-19T11:10:24;12.20;92.20
11474;DHT22;5793;52.238;13.438;2023-02-19T11:12:54;10.50;99.90
11474;DHT22;5793;52.238;13.438;2023-02-19T11:15:26;10.10;99.90
11474;DHT22;5793;52.238;13.438;2023-02-19T11:17:57;10.30;99.90
11474;DHT22;5793;52.238;13.438;2023-02-19T11:20:25;10.90;99.90
11474;DHT22;5793;52.238;13.438;2023-02-19T11:22:57;11.80;93.80
11474;DHT22;5793;52.238;13.438;2023-02-19T11:25:28;11.50;94.00
11474;DHT22;5793;52.238;13.438;2023-02-19T11:28:00;9.20;99.90
11474;DHT22;5793;52.238;13.438;2023-02-19T11:30:36;9.20;99.90
11474;DHT22;5793;52.238;13.438;2023-02-19T11:33:24;9.70;99.90
11474;DHT22;5793;52.238;13.438;2023-02-19T11:35:59;10.20;99.90
11474;DHT22;5793;52.238;13.438;2023-02-19T11:38:43;10.80;99.90
11474;DHT22;5793;52.238;13.438;2023-02-19T11:41:17;11.30;99.90
11474;DHT22;5793;52.238;13.438;2023-02-19T11:44:00;11.50;99.30
11474;DHT22;5793;52.238;13.438;2023-02-19T11:46:37;11.20;97.10
11474;DHT22;5793;52.238;13.438;2023-02-19T11:49:20;10.90;99.90
11474;DHT22;5793;52.238;13.438;2023-02-19T11:52:08;10.00;99.90
11474;DHT22;5793;52.238;13.438;2023-02-19T11:54:46;9.40;99.90
11474;DHT22;5793;52.238;13.438;2023-02-19T11:57:28;9.80;99.90
11474;DHT22;5793;52.238;13.438;2023-02-19T12:00:02;9.70;99.90
11474;DHT22;5793;52.238;13.438;2023-02-19T12:03:13;9.30;99.90
11474;DHT22;5793;52.238;13.438;2023-02-19T12:05:49;9.10;99.90
11474;DHT22;5793;52.238;13.438;2023-02-19T12:09:02;8.50;99.90
11474;DHT22;5793;52.238;13.438;2023-02-19T12:11:45;8.50;99.90
11474;DHT22;5793;52.238;13.438;2023-02-19T12:14:37;8.30;99.90
11474;DHT22;5793;52.238;13.438;2023-02-19T12:17:14;8.10;99.90
11474;DHT22;5793;52.238;13.438;2023-02-19T12:19:57;7.60;99.90
11474;DHT22;5793;52.238;13.438;2023-02-19T12:22:30;7.20;99.90
11474;DHT22;5793;52.238;13.438;2023-02-19T12:25:28;6.90;99.90
11474;DHT22;5793;52.238;13.438;2023-02-19T12:28:15;6.80;99.90
11474;DHT22;5793;52.238;13.438;2023-02-19T12:33:55;6.80;99.90
11474;DHT22;5793;52.238;13.438;2023-02-19T12:36:33;6.70;99.90
11474;DHT22;5793;52.238;13.438;2023-02-19T12:39:11;6.70;99.90
11474;DHT22;5793;52.238;13.438;2023-02-19T12:41:45;6.90;99.90
11474;DHT22;5793;52.238;13.438;2023-02-19T12:44:21;7.30;99.90
11474;DHT22;5793;52.238;13.438;2023-02-19T12:46:53;7.50;99.90
11474;DHT22;5793;52.238;13.438;2023-02-19T12:49:26;7.70;99.90
11474;DHT22;5793;52.238;13.438;2023-02-19T12:51:58;7.80;99.90
11474;DHT22;5793;52.238;13.438;2023-02-19T12:54:29;7.60;99.90
11474;DHT22;5793;52.238;13.438;2023-02-19T12:57:01;7.60;99.90
11474;DHT22;5793;52.238;13.438;2023-02-19T12:59:35;7.60;99.90
11474;DHT22;5793;52.238;13.438;2023-02-19T13:02:13;7.50;99.90
11474;DHT22;5793;52.238;13.438;2023-02-19T13:04:46;7.50;99.90
11474;DHT22;5793;52.238;13.438;2023-02-19T13:07:17;7.40;99.90
11474;DHT22;5793;52.238;13.438;2023-02-19T13:09:49;7.50;99.90
11474;DHT22;5793;52.238;13.438;2023-02-19T13:12:22;7.70;99.90
11474;DHT22;5793;52.238;13.438;2023-02-19T13:14:55;8.20;99.90
11474;DHT22;5793;52.238;13.438;2023-02-19T13:17:31;8.50;99.90
11474;DHT22;5793;52.238;13.438;2023-02-19T13:20:06;8.70;99.90
11474;DHT22;5793;52.238;13.438;2023-02-19T13:22:40;8.60;99.90
11474;DHT22;5793;52.238;13.438;2023-02-19T13:25:52;8.20;99.90
11474;DHT22;5793;52.238;13.438;2023-02-19T13:28:37;8.00;99.90
11474;DHT22;5793;52.238;13.438;2023-02-19T13:31:34;7.80;99.90
11474;DHT22;5793;52.238;13.438;2023-02-19T13:34:15;7.40;99.90
11474;DHT22;5793;52.238;13.438;2023-02-19T13:36:44;7.20;99.90
11474;DHT22;5793;52.238;13.438;2023-02-19T13:39:15;7.00;99.90
11474;DHT22;5793;52.238;13.438;2023-02-19T13:41:49;6.90;99.90
11474;DHT22;5793;52.238;13.438;2023-02-19T13:44:19;6.80;99.90
11474;DHT22;5793;52.238;13.438;2023-02-19T13:46:49;6.60;99.90
11474;DHT22;5793;52.238;13.438;2023-02-19T13:49:38;6.70;99.90
11474;DHT22;5793;52.238;13.438;2023-02-19T13:52:33;7.00;99.90
11474;DHT22;5793;52.238;13.438;2023-02-19T13:58:34;7.60;99.90
11474;DHT22;5793;52.238;13.438;2023-02-19T14:01:03;7.60;99.90
11474;DHT22;5793;52.238;13.438;2023-02-19T14:03:44;7.40;99.90
11474;DHT22;5793;52.238;13.438;2023-02-19T14:06:13;7.30;99.90
11474;DHT22;5793;52.238;13.438;2023-02-19T14:08:49;7.40;99.90
11474;DHT22;5793;52.238;13.438;2023-02-19T14:14:27;7.40;99.90
11474;DHT22;5793;52.238;13.438;2023-02-19T14:19:49;7.10;99.90
11474;DHT22;5793;52.238;13.438;2023-02-19T14:25:57;7.10;99.90
11474;DHT22;5793;52.238;13.438;2023-02-19T14:28:29;7.10;99.90
11474;DHT22;5793;52.238;13.438;2023-02-19T14:31:02;7.00;99.90
11474;DHT22;5793;52.238;13.438;2023-02-19T14:33:37;7.00;99.90
11474;DHT22;5793;52.238;13.438;2023-02-19T14:36:16;6.90;99.90
11474;DHT22;5793;52.238;13.438;2023-02-19T14:38:47;6.90;99.90
11474;DHT22;5793;52.238;13.438;2023-02-19T14:41:19;6.80;99.90
11474;DHT22;5793;52.238;13.438;2023-02-19T14:43:51;6.80;99.90
11474;DHT22;5793;52.238;13.438;2023-02-19T14:46:26;6.80;99.90
11474;DHT22;5793;52.238;13.438;2023-02-19T14:48:57;6.80;99.90
11474;DHT22;5793;52.238;13.438;2023-02-19T14:51:30;6.90;99.90
11474;DHT22;5793;52.238;13.438;2023-02-19T14:54:02;6.90;99.90
11474;DHT22;5793;52.238;13.438;2023-02-19T14:56:38;6.80;99.90
11474;DHT22;5793;52.238;13.438;2023-02-19T14:59:15;6.90;99.90
11474;DHT22;5793;52.238;13.438;2023-02-19T15:01:53;6.90;99.90
11474;DHT22;5793;52.238;13.438;2023-02-19T15:04:23;6.80;99.90
11474;DHT22;5793;52.238;13.438;2023-02-19T15:06:51;6.80;99.90
11474;DHT22;5793;52.238;13.438;2023-02-19T15:09:27;6.70;99.90
11474;DHT22;5793;52.238;13.438;2023-02-19T15:11:58;6.60;99.90
11474;DHT22;5793;52.238;13.438;2023-02-19T15:14:28;6.60;99.90
11474;DHT22;5793;52.238;13.438;2023-02-19T15:17:00;6.60;99.90
11474;DHT22;5793;52.238;13.438;2023-02-19T15:19:31;6.60;99.90
11474;DHT22;5793;52.238;13.438;2023-02-19T15:22:01;6.60;99.90
11474;DHT22;5793;52.238;13.438;2023-02-19T15:24:29;6.50;99.90
11474;DHT22;5793;52.238;13.438;2023-02-19T15:26:58;6.50;99.90
11474;DHT22;5793;52.238;13.438;2023-02-19T15:29:27;6.40;99.90
11474;DHT22;5793;52.238;13.438;2023-02-19T15:31:57;6.30;99.90
11474;DHT22;5793;52.238;13.438;2023-02-19T15:34:27;6.20;99.90
11474;DHT22;5793;52.238;13.438;2023-02-19T15:36:57;6.10;99.90
11474;DHT22;5793;52.238;13.438;2023-02-19T15:39:32;6.00;99.90
11474;DHT22;5793;52.238;13.438;2023-02-19T15:42:03;5.90;99.90
11474;DHT22;5793;52.238;13.438;2023-02-19T15:44:43;5.80;99.90
11474;DHT22;5793;52.238;13.438;2023-02-19T15:47:19;5.80;99.90
11474;DHT22;5793;52.238;13.438;2023-02-19T15:49:52;5.70;99.90
11474;DHT22;5793;52.238;13.438;2023-02-19T15:52:26;5.60;99.90
11474;DHT22;5793;52.238;13.438;2023-02-19T15:54:58;5.50;99.90
11474;DHT22;5793;52.238;13.438;2023-02-19T15:57:32;5.50;99.90
11474;DHT22;5793;52.238;13.438;2023-02-19T16:00:05;5.40;99.90
11474;DHT22;5793;52.238;13.438;2023-02-19T16:02:38;5.30;99.90
11474;DHT22;5793;52.238;13.438;2023-02-19T16:05:11;5.20;99.90
11474;DHT22;5793;52.238;13.438;2023-02-19T16:07:39;5.20;99.90
11474;DHT22;5793;52.238;13.438;2023-02-19T16:10:18;5.10;99.90
11474;DHT22;5793;52.238;13.438;2023-02-19T16:12:56;5.10;99.90
11474;DHT22;5793;52.238;13.438;2023-02-19T16:15:25;5.10;99.90
11474;DHT22;5793;52.238;13.438;2023-02-19T16:17:54;5.00;99.90
11474;DHT22;5793;52.238;13.438;2023-02-19T16:20:25;5.00;99.90
11474;DHT22;5793;52.238;13.438;2023-02-19T16:22:57;4.80;99.90
11474;DHT22;5793;52.238;13.438;2023-02-19T16:25:31;4.70;99.90
11474;DHT22;5793;52.238;13.438;2023-02-19T16:28:09;4.60;99.90
11474;DHT22;5793;52.238;13.438;2023-02-19T16:30:37;4.50;99.90
11474;DHT22;5793;52.238;13.438;2023-02-19T16:33:33;4.50;99.90
11474;DHT22;5793;52.238;13.438;2023-02-19T16:36:23;4.50;99.90
11474;DHT22;5793;52.238;13.438;2023-02-19T16:39:15;4.40;99.90